Time;durP1;ratioP1;P1;durP2;ratioP2;P2;SDS_P1;SDS_P2;PMS_P1;PMS_P2;Temp;Humidity;BMP_temperature;BMP_pressure;BME280_temperature;BME280_humidity;BME280_pressure;Samples;Min_cycle;Max_cycle;Signal;HPM_P1;HPM_P2
2020/12/11 00:00:26;;;;;;;28.63;16.97;;;;;1.20;99487.00;;;;10449091;28;20210;-79
2020/12/11 00:05:28;;;;;;;29.97;17.23;;;;;1.20;99491.00;;;;10399950;28;20309;-79
2020/12/11 00:10:31;;;;;;;26.30;17.07;;;;;1.20;99497.00;;;;10442024;28;20636;-79
2020/12/11 00:15:33;;;;;;;28.20;17.80;;;;;1.10;99476.00;;;;10426109;28;20289;-79
2020/12/11 00:20:36;;;;;;;24.73;16.23;;;;;1.10;99461.00;;;;10425691;28;20569;-79
2020/12/11 00:25:38;;;;;;;30.20;18.50;;;;;1.00;99454.00;;;;10443265;28;20245;-79
2020/12/11 00:30:40;;;;;;;25.37;15.47;;;;;0.90;99450.00;;;;10449886;28;20256;-79
2020/12/11 00:35:42;;;;;;;24.17;15.20;;;;;0.90;99448.00;;;;10442415;28;20725;-79
2020/12/11 00:40:44;;;;;;;27.03;16.23;;;;;0.90;99436.00;;;;10443664;28;20213;-79
2020/12/11 00:45:46;;;;;;;26.93;16.53;;;;;0.90;99449.00;;;;10433342;28;20700;-78
2020/12/11 00:50:49;;;;;;;25.77;15.80;;;;;0.90;99424.00;;;;10447048;28;20520;-80
2020/12/11 00:55:52;;;;;;;25.90;16.50;;;;;0.80;99420.00;;;;10431684;28;20297;-80
2020/12/11 01:00:54;;;;;;;27.50;15.60;;;;;0.80;99400.00;;;;10459058;28;20245;-79
2020/12/11 01:05:56;;;;;;;25.97;15.50;;;;;0.80;99392.00;;;;10428154;28;20222;-79
2020/12/11 01:10:58;;;;;;;27.83;17.63;;;;;0.80;99372.00;;;;10456943;28;20202;-79
2020/12/11 01:16:01;;;;;;;25.80;17.20;;;;;0.80;99361.00;;;;10456952;28;20186;-80
2020/12/11 01:21:04;;;;;;;26.40;16.43;;;;;0.80;99361.00;;;;10432322;28;20218;-79
2020/12/11 01:26:10;;;;;;;24.27;14.67;;;;;0.80;99341.00;;;;10458272;28;20247;-79
2020/12/11 01:31:17;;;;;;;26.17;16.27;;;;;0.80;99336.00;;;;10414366;28;20607;-79
2020/12/11 01:36:32;;;;;;;23.90;15.40;;;;;0.80;99327.00;;;;10471641;28;20293;-79
2020/12/11 01:41:34;;;;;;;24.50;14.07;;;;;0.90;99314.00;;;;10424044;28;20620;-79
2020/12/11 01:46:38;;;;;;;20.63;14.30;;;;;0.90;99294.00;;;;10440367;28;20206;-79
2020/12/11 01:51:43;;;;;;;18.90;11.83;;;;;0.90;99288.00;;;;10438827;28;20194;-79
2020/12/11 01:57:06;;;;;;;22.30;12.43;;;;;1.00;99284.00;;;;10447452;28;21209;-79
2020/12/11 02:02:12;;;;;;;25.23;15.07;;;;;1.00;99290.00;;;;10419773;28;20221;-78
2020/12/11 02:07:14;;;;;;;23.47;15.83;;;;;1.10;99316.00;;;;10429102;28;20242;-79
2020/12/11 02:12:17;;;;;;;20.70;12.90;;;;;1.30;99299.00;;;;10422771;28;20242;-79
2020/12/11 02:17:26;;;;;;;23.43;15.40;;;;;1.40;99291.00;;;;10425546;28;20198;-79
2020/12/11 02:22:28;;;;;;;23.40;12.90;;;;;1.50;99284.00;;;;10443007;28;20249;-79
2020/12/11 02:27:30;;;;;;;23.53;15.20;;;;;1.50;99287.00;;;;10420177;28;20202;-79
2020/12/11 02:32:32;;;;;;;21.23;14.60;;;;;1.60;99262.00;;;;10455723;28;20210;-78
2020/12/11 02:37:37;;;;;;;25.60;14.07;;;;;1.60;99242.00;;;;10450946;28;20292;-78
2020/12/11 02:42:39;;;;;;;21.43;12.83;;;;;1.70;99238.00;;;;10420682;28;20264;-79
2020/12/11 02:47:41;;;;;;;22.20;13.73;;;;;1.70;99226.00;;;;10441585;28;20301;-78
2020/12/11 02:52:43;;;;;;;20.27;11.93;;;;;1.80;99213.00;;;;10435906;28;20623;-80
2020/12/11 02:57:45;;;;;;;21.73;11.23;;;;;1.80;99202.00;;;;10451634;28;20600;-80
2020/12/11 03:02:48;;;;;;;18.33;11.10;;;;;1.80;99188.00;;;;10436687;28;20230;-79
2020/12/11 03:07:51;;;;;;;20.37;13.47;;;;;1.80;99172.00;;;;10454197;28;20206;-80
2020/12/11 03:12:53;;;;;;;20.80;14.03;;;;;1.90;99171.00;;;;10431436;28;20202;-80
2020/12/11 03:17:55;;;;;;;21.13;13.07;;;;;1.90;99164.00;;;;10443893;28;20209;-79
2020/12/11 03:22:57;;;;;;;22.23;13.90;;;;;1.90;99167.00;;;;10429550;28;20565;-79
2020/12/11 03:28:01;;;;;;;19.80;13.23;;;;;2.00;99146.00;;;;10444617;28;20202;-79
2020/12/11 03:33:03;;;;;;;20.90;12.70;;;;;2.00;99139.00;;;;10433485;28;20260;-78
2020/12/11 03:38:06;;;;;;;21.17;14.10;;;;;2.00;99117.00;;;;10453645;28;20660;-78
2020/12/11 03:43:08;;;;;;;20.37;13.57;;;;;2.00;99110.00;;;;10426157;28;20198;-79
2020/12/11 03:48:10;;;;;;;23.10;13.70;;;;;2.10;99107.00;;;;10428232;28;20557;-78
2020/12/11 03:53:12;;;;;;;22.40;13.57;;;;;2.10;99094.00;;;;10430502;28;20210;-79
2020/12/11 03:58:14;;;;;;;20.37;13.00;;;;;2.20;99080.00;;;;10427380;28;20665;-79
2020/12/11 04:03:17;;;;;;;18.93;11.13;;;;;2.20;99064.00;;;;10441544;28;20233;-80
2020/12/11 04:08:19;;;;;;;18.17;12.73;;;;;2.30;99054.00;;;;10429423;28;20206;-79
2020/12/11 04:13:21;;;;;;;20.20;12.77;;;;;2.30;99040.00;;;;10429196;28;20244;-79
2020/12/11 04:18:23;;;;;;;21.83;13.97;;;;;2.30;99030.00;;;;10436209;28;20218;-80
2020/12/11 04:23:27;;;;;;;20.63;13.33;;;;;2.30;99012.00;;;;10450613;28;20285;-80
2020/12/11 04:28:29;;;;;;;25.30;15.20;;;;;2.30;98992.00;;;;10448419;28;20217;-79
2020/12/11 04:33:31;;;;;;;21.43;15.30;;;;;2.30;98990.00;;;;10445049;28;20657;-79
2020/12/11 04:38:33;;;;;;;20.47;12.70;;;;;2.30;98983.00;;;;10443279;28;20213;-79
2020/12/11 04:43:36;;;;;;;22.03;13.77;;;;;2.30;98966.00;;;;10442461;28;20542;-79
2020/12/11 04:48:39;;;;;;;23.17;14.63;;;;;2.40;98958.00;;;;10442523;28;20210;-79
2020/12/11 04:53:46;;;;;;;21.13;14.27;;;;;2.40;98946.00;;;;10442799;28;20207;-79
2020/12/11 04:58:51;;;;;;;23.50;14.13;;;;;2.40;98949.00;;;;10434494;28;20242;-79
2020/12/11 05:03:55;;;;;;;22.23;12.97;;;;;2.50;98949.00;;;;10440925;28;20288;-79
2020/12/11 05:09:18;;;;;;;19.07;13.90;;;;;2.60;98933.00;;;;10428383;28;20340;-79
2020/12/11 05:14:31;;;;;;;20.03;12.73;;;;;2.70;98924.00;;;;10442327;28;20198;-79
2020/12/11 05:19:51;;;;;;;14.17;10.53;;;;;2.70;98917.00;;;;10423781;28;20221;-79
2020/12/11 05:24:56;;;;;;;14.77;10.57;;;;;2.70;98921.00;;;;10423143;28;20824;-79
2020/12/11 05:30:09;;;;;;;21.47;12.80;;;;;2.70;98905.00;;;;10442945;28;20252;-80
2020/12/11 05:35:17;;;;;;;15.27;10.43;;;;;2.80;98893.00;;;;10446188;28;20553;-80
2020/12/11 05:40:33;;;;;;;17.07;11.97;;;;;2.80;98880.00;;;;10429045;28;20224;-79
2020/12/11 05:45:37;;;;;;;17.93;12.27;;;;;2.80;98885.00;;;;10438945;28;20209;-80
2020/12/11 05:50:39;;;;;;;15.93;11.27;;;;;2.80;98875.00;;;;10468496;28;20202;-78
2020/12/11 05:55:42;;;;;;;16.60;10.30;;;;;2.80;98877.00;;;;10445735;28;20194;-79
2020/12/11 06:00:46;;;;;;;15.77;9.80;;;;;2.90;98884.00;;;;10459661;28;20321;-80
2020/12/11 06:05:49;;;;;;;14.40;10.27;;;;;2.90;98861.00;;;;10423269;28;20339;-80
2020/12/11 06:10:52;;;;;;;15.87;10.23;;;;;2.90;98855.00;;;;10441417;28;20198;-80
2020/12/11 06:15:56;;;;;;;14.23;9.33;;;;;2.90;98852.00;;;;10430791;28;20284;-79
2020/12/11 06:21:00;;;;;;;13.17;7.93;;;;;3.00;98849.00;;;;10437602;28;20218;-80
2020/12/11 06:26:04;;;;;;;15.10;9.57;;;;;3.00;98841.00;;;;10411048;28;20194;-80
2020/12/11 06:31:13;;;;;;;12.20;8.77;;;;;3.00;98832.00;;;;10417162;28;20604;-80
2020/12/11 06:36:16;;;;;;;11.70;8.03;;;;;3.10;98823.00;;;;10437322;28;20206;-79
2020/12/11 06:41:27;;;;;;;12.43;8.73;;;;;3.20;98832.00;;;;10399580;28;20764;-80
2020/12/11 06:46:29;;;;;;;11.63;8.10;;;;;3.20;98816.00;;;;10432523;28;20202;-79
2020/12/11 06:51:33;;;;;;;9.83;7.83;;;;;3.30;98814.00;;;;10426359;28;20231;-79
2020/12/11 06:56:40;;;;;;;10.83;8.27;;;;;3.40;98804.00;;;;10421759;28;20803;-80
2020/12/11 07:01:42;;;;;;;8.70;6.47;;;;;3.40;98795.00;;;;10419578;28;20588;-79
2020/12/11 07:06:52;;;;;;;11.77;8.40;;;;;3.50;98788.00;;;;10422042;28;20304;-80
2020/12/11 07:11:59;;;;;;;8.73;6.40;;;;;3.50;98787.00;;;;10411006;28;20197;-79
2020/12/11 07:17:01;;;;;;;7.40;5.47;;;;;3.50;98772.00;;;;10405133;28;20209;-79
2020/12/11 07:22:05;;;;;;;7.00;4.83;;;;;3.60;98777.00;;;;10438532;28;20218;-80
2020/12/11 07:27:07;;;;;;;6.90;5.57;;;;;3.60;98772.00;;;;10420961;28;20199;-79
2020/12/11 07:32:15;;;;;;;8.90;6.53;;;;;3.70;98761.00;;;;10419827;28;20222;-79
2020/12/11 07:37:18;;;;;;;9.70;6.73;;;;;3.70;98755.00;;;;10405702;28;20705;-79
2020/12/11 07:42:24;;;;;;;10.03;6.60;;;;;3.70;98747.00;;;;10421760;28;20268;-79
2020/12/11 07:47:27;;;;;;;10.17;6.83;;;;;3.70;98749.00;;;;10405309;28;20289;-79
2020/12/11 07:52:29;;;;;;;11.53;7.50;;;;;3.80;98737.00;;;;10401883;28;20297;-79
2020/12/11 07:57:32;;;;;;;8.63;6.77;;;;;3.90;98739.00;;;;10407734;28;20272;-80
2020/12/11 08:02:35;;;;;;;9.37;6.67;;;;;3.90;98732.00;;;;10422451;28;20252;-79
2020/12/11 08:07:37;;;;;;;10.30;6.73;;;;;4.00;98719.00;;;;10404385;28;20198;-79
2020/12/11 08:12:40;;;;;;;7.50;5.97;;;;;4.10;98725.00;;;;10428572;28;20247;-79
2020/12/11 08:17:43;;;;;;;7.90;5.63;;;;;4.20;98725.00;;;;10432080;28;20564;-79
2020/12/11 08:22:45;;;;;;;7.67;6.07;;;;;4.30;98722.00;;;;10427001;28;20217;-78
2020/12/11 08:27:48;;;;;;;6.50;5.17;;;;;4.40;98714.00;;;;10412033;28;20248;-78
2020/12/11 08:32:51;;;;;;;8.40;5.77;;;;;4.40;98717.00;;;;10427494;28;20209;-79
2020/12/11 08:37:58;;;;;;;5.07;3.73;;;;;4.50;98720.00;;;;10409751;28;20224;-79
2020/12/11 08:48:20;;;;;;;8.20;5.30;;;;;4.50;98695.00;;;;10413760;28;20213;-79
2020/12/11 08:53:24;;;;;;;7.40;5.97;;;;;4.50;98697.00;;;;10408600;28;20209;-79
2020/12/11 08:58:30;;;;;;;6.90;6.17;;;;;4.50;98689.00;;;;10426349;28;20202;-79
2020/12/11 09:03:33;;;;;;;5.83;4.73;;;;;4.60;98695.00;;;;10424368;28;20214;-79
2020/12/11 09:08:35;;;;;;;6.53;5.30;;;;;4.60;98694.00;;;;10408127;28;20707;-79
2020/12/11 09:13:37;;;;;;;5.93;4.60;;;;;4.60;98689.00;;;;10446007;28;20263;-79
2020/12/11 09:18:39;;;;;;;6.53;4.90;;;;;4.60;98688.00;;;;10439941;28;20217;-79
2020/12/11 09:23:41;;;;;;;6.83;5.33;;;;;4.60;98688.00;;;;10407244;28;20212;-80
2020/12/11 09:28:48;;;;;;;5.57;4.13;;;;;4.60;98685.00;;;;10424683;28;20210;-81
2020/12/11 09:33:52;;;;;;;6.10;4.53;;;;;4.60;98692.00;;;;10433016;28;20202;-80
2020/12/11 09:38:54;;;;;;;5.13;3.90;;;;;4.60;98681.00;;;;10424549;28;20256;-81
2020/12/11 09:44:33;;;;;;;4.93;3.70;;;;;4.70;98685.00;;;;10424838;28;20199;-81
2020/12/11 09:50:01;;;;;;;5.17;3.63;;;;;4.70;98685.00;;;;10446219;28;20213;-80
2020/12/11 09:54:49;;;;;;;5.90;4.00;;;;;4.80;98676.00;;;;10458392;28;20198;-82
2020/12/11 09:59:55;;;;;;;5.03;3.73;;;;;4.80;98674.00;;;;10408821;28;20292;-82
2020/12/11 10:04:57;;;;;;;5.43;4.27;;;;;4.80;98655.00;;;;10436129;28;20210;-83
2020/12/11 10:10:00;;;;;;;5.20;4.20;;;;;4.80;98660.00;;;;10442375;28;20198;-82
2020/12/11 10:15:07;;;;;;;6.50;4.77;;;;;4.80;98651.00;;;;10430192;28;20201;-83
2020/12/11 10:20:09;;;;;;;5.47;4.27;;;;;4.90;98646.00;;;;10432517;28;20214;-82
2020/12/11 10:25:11;;;;;;;5.73;3.87;;;;;5.00;98633.00;;;;10411728;28;20198;-82
2020/12/11 10:30:14;;;;;;;7.23;4.60;;;;;5.20;98627.00;;;;10396819;28;20336;-81
2020/12/11 10:35:16;;;;;;;6.60;4.13;;;;;5.30;98615.00;;;;10424336;28;20676;-82
2020/12/11 10:40:18;;;;;;;5.70;4.40;;;;;5.50;98607.00;;;;10409352;28;20305;-80
2020/12/11 10:45:21;;;;;;;5.50;4.13;;;;;5.60;98597.00;;;;10455953;28;20201;-82
2020/12/11 10:50:40;;;;;;;5.27;3.97;;;;;5.60;98594.00;;;;10427429;28;20686;-82
2020/12/11 10:55:42;;;;;;;6.33;4.30;;;;;5.60;98582.00;;;;10423816;28;20225;-81
2020/12/11 11:00:44;;;;;;;5.60;3.77;;;;;5.50;98574.00;;;;10416692;28;20772;-83
2020/12/11 11:05:47;;;;;;;4.40;3.70;;;;;5.60;98570.00;;;;10423164;28;20723;-84
2020/12/11 11:10:50;;;;;;;4.53;3.57;;;;;5.70;98569.00;;;;10422404;28;20179;-82
2020/12/11 11:15:54;;;;;;;5.40;4.20;;;;;5.80;98555.00;;;;10415801;28;20190;-83
2020/12/11 11:31:39;;;;;;;8.33;4.60;;;;;6.20;98528.00;;;;10423812;28;20224;-81
2020/12/11 11:36:41;;;;;;;5.70;3.80;;;;;6.50;98509.00;;;;10447675;28;20214;-82
2020/12/11 11:41:45;;;;;;;6.00;3.60;;;;;6.80;98515.00;;;;10413836;28;20206;-82
2020/12/11 11:46:47;;;;;;;5.03;3.60;;;;;6.90;98510.00;;;;10428665;28;20255;-82
2020/12/11 11:57:01;;;;;;;4.30;3.30;;;;;6.70;98495.00;;;;10425921;28;20214;-82
2020/12/11 12:02:04;;;;;;;5.23;3.27;;;;;6.70;98496.00;;;;10436567;28;20209;-83
2020/12/11 12:07:06;;;;;;;3.33;2.90;;;;;6.60;98479.00;;;;10436887;28;20225;-82
2020/12/11 12:12:08;;;;;;;3.50;3.20;;;;;6.50;98474.00;;;;10406054;28;20256;-81
2020/12/11 12:17:10;;;;;;;3.70;3.07;;;;;6.40;98464.00;;;;10423524;28;20236;-82
2020/12/11 12:27:32;;;;;;;4.43;3.67;;;;;6.20;98453.00;;;;10471154;28;20200;-82
2020/12/11 12:38:00;;;;;;;3.60;3.10;;;;;6.30;98443.00;;;;10348020;28;20194;-82
2020/12/11 12:43:21;;;;;;;3.83;3.43;;;;;6.40;98447.00;;;;10439860;28;20899;-81
2020/12/11 12:48:23;;;;;;;4.20;3.23;;;;;6.50;98438.00;;;;10435729;28;20187;-81
2020/12/11 12:53:26;;;;;;;5.50;3.07;;;;;6.60;98433.00;;;;10433590;28;20955;-82
2020/12/11 12:58:28;;;;;;;3.90;3.00;;;;;6.50;98423.00;;;;10410781;28;20217;-83
2020/12/11 13:08:55;;;;;;;4.30;3.27;;;;;6.60;98423.00;;;;10402769;28;20295;-83
2020/12/11 13:13:57;;;;;;;4.70;3.13;;;;;6.60;98412.00;;;;10430097;28;20194;-84
2020/12/11 13:19:03;;;;;;;5.40;3.87;;;;;6.50;98408.00;;;;10450856;28;20297;-83
2020/12/11 13:30:11;;;;;;;3.20;2.73;;;;;6.40;98401.00;;;;10454982;28;20222;-84
2020/12/11 13:35:13;;;;;;;4.13;3.07;;;;;6.40;98397.00;;;;10424833;28;20194;-83
2020/12/11 13:40:15;;;;;;;3.60;3.30;;;;;6.40;98401.00;;;;10423026;28;20292;-83
2020/12/11 13:45:18;;;;;;;5.70;3.30;;;;;6.30;98398.00;;;;10408617;28;20198;-81
2020/12/11 13:50:20;;;;;;;5.03;3.73;;;;;6.30;98402.00;;;;10429785;28;20186;-81
2020/12/11 13:55:22;;;;;;;4.27;3.30;;;;;6.30;98398.00;;;;10421927;28;20850;-80
2020/12/11 14:00:24;;;;;;;3.77;3.30;;;;;6.30;98407.00;;;;10404832;28;20216;-80
2020/12/11 14:05:26;;;;;;;5.33;3.67;;;;;6.20;98417.00;;;;10441649;28;20230;-80
2020/12/11 14:10:28;;;;;;;5.80;3.97;;;;;6.20;98413.00;;;;10407890;28;20649;-81
2020/12/11 14:15:31;;;;;;;6.33;3.63;;;;;6.10;98410.00;;;;10405154;28;20224;-81
2020/12/11 14:21:23;;;;;;;6.90;4.17;;;;;6.10;98400.00;;;;10406274;28;20210;-81
2020/12/11 14:26:01;;;;;;;5.10;4.00;;;;;6.00;98412.00;;;;10437161;28;20224;-79
2020/12/11 14:31:03;;;;;;;5.53;4.43;;;;;6.00;98408.00;;;;10419221;28;20248;-80
2020/12/11 14:36:05;;;;;;;6.90;4.87;;;;;6.00;98408.00;;;;10436786;28;20198;-81
2020/12/11 14:41:08;;;;;;;6.97;4.80;;;;;6.00;98404.00;;;;10405074;28;20242;-81
2020/12/11 14:46:10;;;;;;;7.07;4.33;;;;;5.90;98409.00;;;;10404659;28;20291;-81
2020/12/11 14:51:12;;;;;;;7.30;4.53;;;;;5.90;98405.00;;;;10409073;28;20236;-80
2020/12/11 14:56:14;;;;;;;8.10;4.40;;;;;5.90;98404.00;;;;10402290;28;20194;-80
2020/12/11 15:01:17;;;;;;;6.67;5.03;;;;;5.90;98408.00;;;;10437120;28;20320;-80
2020/12/11 15:06:19;;;;;;;6.97;4.77;;;;;5.90;98412.00;;;;10407099;28;20214;-80
2020/12/11 15:11:21;;;;;;;7.00;5.03;;;;;5.90;98420.00;;;;10410513;28;20198;-80
2020/12/11 15:16:23;;;;;;;7.20;5.63;;;;;5.90;98427.00;;;;10446237;28;20197;-80
2020/12/11 15:21:26;;;;;;;8.77;4.77;;;;;5.90;98428.00;;;;10445274;28;20918;-81
2020/12/11 15:26:35;;;;;;;7.23;4.50;;;;;5.90;98416.00;;;;10429852;28;20198;-80
2020/12/11 15:31:39;;;;;;;7.87;5.17;;;;;5.90;98423.00;;;;10461932;28;20185;-80
2020/12/11 15:36:41;;;;;;;6.87;5.27;;;;;5.90;98431.00;;;;10428496;28;20288;-80
2020/12/11 15:41:43;;;;;;;7.03;5.80;;;;;5.90;98421.00;;;;10450649;28;20232;-80
2020/12/11 15:46:46;;;;;;;5.77;5.17;;;;;5.90;98420.00;;;;10444374;28;20724;-79
2020/12/11 15:51:49;;;;;;;6.47;5.80;;;;;5.90;98418.00;;;;10443904;28;20187;-80
2020/12/11 15:56:52;;;;;;;10.13;6.27;;;;;5.90;98422.00;;;;10421508;28;20273;-80
2020/12/11 16:01:54;;;;;;;7.67;6.20;;;;;5.90;98426.00;;;;10432880;28;20232;-80
2020/12/11 16:06:57;;;;;;;8.20;6.40;;;;;5.90;98430.00;;;;10414277;28;20239;-80
2020/12/11 16:12:06;;;;;;;8.27;6.93;;;;;5.90;98425.00;;;;10439537;28;20196;-80
2020/12/11 16:17:11;;;;;;;8.20;7.00;;;;;5.90;98419.00;;;;10425146;28;20564;-80
2020/12/11 16:22:14;;;;;;;8.70;6.87;;;;;5.90;98427.00;;;;10424457;28;20194;-80
2020/12/11 16:27:16;;;;;;;12.70;8.13;;;;;5.90;98420.00;;;;10408545;28;20798;-79
2020/12/11 16:32:19;;;;;;;8.83;7.37;;;;;5.90;98413.00;;;;10425216;28;20221;-80
2020/12/11 16:37:21;;;;;;;9.77;8.27;;;;;5.90;98412.00;;;;10418293;28;20206;-79
2020/12/11 16:42:24;;;;;;;11.23;8.80;;;;;5.90;98413.00;;;;10426597;28;20220;-79
2020/12/11 16:47:29;;;;;;;17.13;10.13;;;;;5.90;98421.00;;;;10413956;28;20260;-79
2020/12/11 16:52:31;;;;;;;14.30;9.63;;;;;6.00;98414.00;;;;10440955;28;20204;-79
2020/12/11 16:57:36;;;;;;;12.47;9.27;;;;;6.00;98411.00;;;;10426485;28;20288;-79
2020/12/11 17:03:19;;;;;;;14.00;9.77;;;;;6.00;98407.00;;;;10407757;28;20249;-79
2020/12/11 17:08:15;;;;;;;12.70;9.30;;;;;6.00;98409.00;;;;10442229;28;20212;-79
2020/12/11 17:13:17;;;;;;;11.67;10.47;;;;;6.00;98419.00;;;;10422437;28;20907;-78
2020/12/11 17:18:19;;;;;;;12.33;10.00;;;;;6.00;98414.00;;;;10424856;28;20202;-79
2020/12/11 17:23:25;;;;;;;14.80;9.60;;;;;6.10;98415.00;;;;10442006;28;20271;-80
2020/12/11 17:28:27;;;;;;;12.70;10.43;;;;;6.10;98415.00;;;;10399693;28;20260;-79
2020/12/11 17:33:34;;;;;;;11.87;9.23;;;;;6.10;98413.00;;;;10428687;28;20202;-80
2020/12/11 17:38:36;;;;;;;14.47;9.03;;;;;6.10;98412.00;;;;10424253;28;20202;-80
2020/12/11 17:43:39;;;;;;;12.70;9.83;;;;;6.10;98411.00;;;;10438716;28;20214;-80
2020/12/11 17:48:41;;;;;;;11.47;9.43;;;;;6.10;98418.00;;;;10413330;28;20604;-81
2020/12/11 17:53:43;;;;;;;12.00;10.00;;;;;6.10;98415.00;;;;10424620;28;20245;-80
2020/12/11 17:58:46;;;;;;;16.87;10.97;;;;;6.20;98417.00;;;;10423810;28;20244;-80
2020/12/11 18:03:48;;;;;;;13.33;10.60;;;;;6.20;98428.00;;;;10431547;28;20226;-80
2020/12/11 18:08:50;;;;;;;15.20;10.47;;;;;6.20;98416.00;;;;10447640;28;20197;-80
2020/12/11 18:13:52;;;;;;;12.47;10.30;;;;;6.30;98419.00;;;;10440823;28;20256;-80
2020/12/11 18:18:59;;;;;;;13.63;11.63;;;;;6.30;98421.00;;;;10423633;28;20669;-81
2020/12/11 18:24:05;;;;;;;17.00;11.13;;;;;6.30;98420.00;;;;10438863;28;20214;-80
2020/12/11 18:29:07;;;;;;;12.07;10.30;;;;;6.40;98415.00;;;;10395712;28;20657;-80
2020/12/11 18:34:10;;;;;;;16.47;11.53;;;;;6.40;98413.00;;;;10407658;28;20209;-81
2020/12/11 18:39:13;;;;;;;16.23;12.73;;;;;6.40;98409.00;;;;10420681;28;20198;-81
2020/12/11 18:44:15;;;;;;;14.77;11.90;;;;;6.40;98412.00;;;;10438603;28;20198;-80
2020/12/11 18:49:17;;;;;;;16.93;11.53;;;;;6.50;98408.00;;;;10428775;28;20197;-81
2020/12/11 18:54:22;;;;;;;17.83;11.03;;;;;6.50;98410.00;;;;10438962;28;20232;-81
2020/12/11 18:59:25;;;;;;;16.60;11.43;;;;;6.40;98398.00;;;;10441103;28;20258;-81
2020/12/11 19:04:27;;;;;;;14.40;10.63;;;;;6.40;98401.00;;;;10420367;28;20225;-81
2020/12/11 19:09:29;;;;;;;17.23;10.80;;;;;6.50;98408.00;;;;10438922;28;20205;-81
2020/12/11 19:14:32;;;;;;;13.73;10.33;;;;;6.50;98415.00;;;;10421470;28;20730;-81
2020/12/11 19:19:34;;;;;;;19.93;12.57;;;;;6.60;98419.00;;;;10437496;28;20680;-80
2020/12/11 19:24:36;;;;;;;16.27;10.80;;;;;6.60;98412.00;;;;10421795;28;20607;-80
2020/12/11 19:29:39;;;;;;;13.37;11.13;;;;;6.70;98418.00;;;;10426071;28;20249;-80
2020/12/11 19:34:41;;;;;;;18.20;10.43;;;;;6.70;98425.00;;;;10438003;28;20197;-80
2020/12/11 19:39:43;;;;;;;14.27;11.37;;;;;6.70;98426.00;;;;10436502;28;20230;-80
2020/12/11 19:44:45;;;;;;;14.70;10.97;;;;;6.70;98428.00;;;;10437476;28;20255;-80
2020/12/11 19:49:47;;;;;;;14.03;10.60;;;;;6.70;98422.00;;;;10418947;28;20206;-80
2020/12/11 19:54:50;;;;;;;11.83;10.20;;;;;6.70;98426.00;;;;10434082;28;20228;-79
2020/12/11 19:59:52;;;;;;;12.10;10.57;;;;;6.80;98418.00;;;;10445316;28;20240;-80
2020/12/11 20:04:59;;;;;;;15.50;12.80;;;;;6.80;98432.00;;;;10444667;28;20218;-79
2020/12/11 20:10:03;;;;;;;19.27;13.60;;;;;6.80;98438.00;;;;10435821;28;20202;-79
2020/12/11 20:15:06;;;;;;;20.87;12.40;;;;;6.80;98428.00;;;;10441914;28;20225;-80
2020/12/11 20:20:09;;;;;;;18.37;13.47;;;;;6.90;98429.00;;;;10437983;28;20738;-80
2020/12/11 20:25:11;;;;;;;17.33;13.40;;;;;6.90;98434.00;;;;10433787;28;20248;-80
2020/12/11 20:30:14;;;;;;;18.03;11.60;;;;;6.90;98429.00;;;;10436113;28;20199;-80
2020/12/11 20:35:16;;;;;;;18.87;12.27;;;;;6.90;98425.00;;;;10444638;28;20253;-79
2020/12/11 20:40:18;;;;;;;19.47;12.13;;;;;7.00;98430.00;;;;10432061;28;20292;-79
2020/12/11 20:45:21;;;;;;;14.63;11.53;;;;;7.00;98440.00;;;;10452743;28;20210;-80
2020/12/11 20:50:28;;;;;;;14.10;11.03;;;;;7.00;98439.00;;;;10443218;28;20643;-80
2020/12/11 20:55:30;;;;;;;13.13;11.57;;;;;7.10;98448.00;;;;10432111;28;20201;-79
2020/12/11 21:00:32;;;;;;;16.43;11.80;;;;;7.10;98444.00;;;;10446171;28;20838;-80
2020/12/11 21:05:35;;;;;;;15.17;11.33;;;;;7.10;98450.00;;;;10456812;28;20276;-79
2020/12/11 21:10:37;;;;;;;15.70;12.27;;;;;7.10;98455.00;;;;10442529;28;20213;-79
2020/12/11 21:15:39;;;;;;;14.70;11.43;;;;;7.20;98458.00;;;;10440128;28;20195;-80
2020/12/11 21:20:42;;;;;;;19.60;12.73;;;;;7.20;98458.00;;;;10426202;28;20202;-80
2020/12/11 21:25:44;;;;;;;13.13;10.33;;;;;7.20;98466.00;;;;10441362;28;20573;-79
2020/12/11 21:30:49;;;;;;;14.57;11.50;;;;;7.20;98467.00;;;;10426627;28;20214;-80
2020/12/11 21:35:51;;;;;;;16.67;11.67;;;;;7.20;98468.00;;;;10441303;28;20206;-80
2020/12/11 21:40:55;;;;;;;14.67;11.17;;;;;7.20;98466.00;;;;10434388;28;20221;-80
2020/12/11 21:45:57;;;;;;;15.70;11.73;;;;;7.20;98469.00;;;;10456194;28;20248;-80
2020/12/11 21:51:00;;;;;;;17.30;12.50;;;;;7.10;98466.00;;;;10433569;28;20648;-80
2020/12/11 21:56:02;;;;;;;15.63;11.37;;;;;7.10;98482.00;;;;10421793;28;20202;-79
2020/12/11 22:01:04;;;;;;;15.13;11.70;;;;;7.10;98477.00;;;;10419357;28;20214;-79
2020/12/11 22:06:06;;;;;;;13.03;11.10;;;;;7.10;98484.00;;;;10435736;28;20213;-79
2020/12/11 22:11:09;;;;;;;15.73;12.03;;;;;7.10;98481.00;;;;10427370;28;20202;-79
2020/12/11 22:16:13;;;;;;;17.63;13.43;;;;;7.10;98482.00;;;;10433691;28;20730;-80
2020/12/11 22:21:16;;;;;;;20.00;12.23;;;;;7.10;98479.00;;;;10439445;28;20229;-79
2020/12/11 22:26:18;;;;;;;15.07;11.83;;;;;7.20;98479.00;;;;10437885;28;20251;-79
2020/12/11 22:31:20;;;;;;;13.83;10.60;;;;;7.20;98482.00;;;;10428378;28;20194;-79
2020/12/11 22:36:23;;;;;;;13.93;10.37;;;;;7.20;98482.00;;;;10421195;28;20687;-79
2020/12/11 22:41:28;;;;;;;14.77;10.80;;;;;7.20;98483.00;;;;10422869;28;20611;-79
2020/12/11 22:46:34;;;;;;;14.47;10.17;;;;;7.20;98488.00;;;;10436633;28;20229;-80
2020/12/11 22:51:36;;;;;;;15.47;10.77;;;;;7.10;98477.00;;;;10421457;28;20668;-79
2020/12/11 22:56:38;;;;;;;17.50;11.80;;;;;7.10;98481.00;;;;10411088;28;20256;-80
2020/12/11 23:01:41;;;;;;;16.43;11.93;;;;;7.10;98488.00;;;;10433209;28;20217;-79
2020/12/11 23:06:43;;;;;;;17.33;11.57;;;;;7.10;98486.00;;;;10425626;28;20297;-79
2020/12/11 23:11:48;;;;;;;16.53;11.87;;;;;7.20;98494.00;;;;10446115;28;20193;-79
2020/12/11 23:16:53;;;;;;;17.73;12.23;;;;;7.20;98491.00;;;;10416734;28;20214;-79
2020/12/11 23:21:55;;;;;;;19.93;13.57;;;;;7.20;98495.00;;;;10434238;28;20222;-81
2020/12/11 23:26:57;;;;;;;22.33;14.10;;;;;7.20;98502.00;;;;10438534;28;20194;-80
2020/12/11 23:32:00;;;;;;;27.10;14.77;;;;;7.20;98507.00;;;;10431114;28;20194;-80
2020/12/11 23:37:03;;;;;;;27.57;15.13;;;;;7.30;98502.00;;;;10445153;28;20278;-80
2020/12/11 23:42:05;;;;;;;26.43;16.30;;;;;7.30;98509.00;;;;10429025;28;20222;-79
2020/12/11 23:47:08;;;;;;;25.47;15.83;;;;;7.30;98516.00;;;;10427818;28;20782;-80
2020/12/11 23:52:10;;;;;;;25.53;15.50;;;;;7.30;98520.00;;;;10439623;28;20202;-80
2020/12/11 23:57:12;;;;;;;23.80;15.20;;;;;7.30;98525.00;;;;10436092;28;20206;-80
